sensor_id;sensor_type;location;lat;lon;timestamp;P1;durP1;ratioP1;P2;durP2;ratioP2
37805;SDS011;25082;50.870;0.022;2023-06-24T00:02:02;7.05;;;4.18;;
37805;SDS011;25082;50.870;0.022;2023-06-24T00:04:28;7.05;;;4.55;;
37805;SDS011;25082;50.870;0.022;2023-06-24T00:06:53;5.22;;;4.15;;
37805;SDS011;25082;50.870;0.022;2023-06-24T00:09:23;5.78;;;4.55;;
37805;SDS011;25082;50.870;0.022;2023-06-24T00:11:50;6.15;;;4.60;;
37805;SDS011;25082;50.870;0.022;2023-06-24T00:14:15;5.53;;;4.38;;
37805;SDS011;25082;50.870;0.022;2023-06-24T00:16:41;6.20;;;4.57;;
37805;SDS011;25082;50.870;0.022;2023-06-24T00:19:07;5.45;;;4.25;;
37805;SDS011;25082;50.870;0.022;2023-06-24T00:21:33;5.70;;;4.78;;
37805;SDS011;25082;50.870;0.022;2023-06-24T00:24:02;7.72;;;4.40;;
37805;SDS011;25082;50.870;0.022;2023-06-24T00:26:29;6.53;;;4.70;;
37805;SDS011;25082;50.870;0.022;2023-06-24T00:28:55;5.22;;;4.40;;
37805;SDS011;25082;50.870;0.022;2023-06-24T00:31:21;6.18;;;4.10;;
37805;SDS011;25082;50.870;0.022;2023-06-24T00:33:46;4.75;;;4.05;;
37805;SDS011;25082;50.870;0.022;2023-06-24T00:36:14;6.63;;;4.60;;
37805;SDS011;25082;50.870;0.022;2023-06-24T00:38:40;5.25;;;4.60;;
37805;SDS011;25082;50.870;0.022;2023-06-24T00:41:06;6.35;;;4.65;;
37805;SDS011;25082;50.870;0.022;2023-06-24T00:43:33;8.25;;;5.15;;
37805;SDS011;25082;50.870;0.022;2023-06-24T00:45:59;6.38;;;4.25;;
37805;SDS011;25082;50.870;0.022;2023-06-24T00:48:25;5.60;;;4.40;;
37805;SDS011;25082;50.870;0.022;2023-06-24T00:50:51;6.47;;;4.80;;
37805;SDS011;25082;50.870;0.022;2023-06-24T00:53:17;6.85;;;4.78;;
37805;SDS011;25082;50.870;0.022;2023-06-24T00:55:44;6.90;;;4.68;;
37805;SDS011;25082;50.870;0.022;2023-06-24T00:58:11;6.50;;;4.03;;
37805;SDS011;25082;50.870;0.022;2023-06-24T01:00:42;5.22;;;4.32;;
37805;SDS011;25082;50.870;0.022;2023-06-24T01:03:11;5.03;;;4.47;;
37805;SDS011;25082;50.870;0.022;2023-06-24T01:05:41;5.03;;;4.38;;
37805;SDS011;25082;50.870;0.022;2023-06-24T01:08:09;5.13;;;4.63;;
37805;SDS011;25082;50.870;0.022;2023-06-24T01:10:40;5.93;;;4.78;;
37805;SDS011;25082;50.870;0.022;2023-06-24T01:13:07;5.80;;;4.07;;
37805;SDS011;25082;50.870;0.022;2023-06-24T01:15:33;5.72;;;4.00;;
37805;SDS011;25082;50.870;0.022;2023-06-24T01:21:05;6.30;;;4.40;;
37805;SDS011;25082;50.870;0.022;2023-06-24T01:36:55;7.10;;;4.70;;
37805;SDS011;25082;50.870;0.022;2023-06-24T01:39:34;5.10;;;4.10;;
37805;SDS011;25082;50.870;0.022;2023-06-24T01:42:07;6.43;;;5.07;;
37805;SDS011;25082;50.870;0.022;2023-06-24T01:44:36;5.88;;;4.53;;
37805;SDS011;25082;50.870;0.022;2023-06-24T01:47:05;6.22;;;4.32;;
37805;SDS011;25082;50.870;0.022;2023-06-24T01:49:33;6.53;;;4.50;;
37805;SDS011;25082;50.870;0.022;2023-06-24T01:52:05;6.97;;;4.57;;
37805;SDS011;25082;50.870;0.022;2023-06-24T01:54:36;7.25;;;4.65;;
37805;SDS011;25082;50.870;0.022;2023-06-24T01:57:06;4.80;;;3.97;;
37805;SDS011;25082;50.870;0.022;2023-06-24T01:59:33;4.45;;;4.00;;
37805;SDS011;25082;50.870;0.022;2023-06-24T02:02:02;5.82;;;4.25;;
37805;SDS011;25082;50.870;0.022;2023-06-24T02:04:30;4.60;;;3.97;;
37805;SDS011;25082;50.870;0.022;2023-06-24T02:06:58;5.32;;;4.32;;
37805;SDS011;25082;50.870;0.022;2023-06-24T02:09:26;5.57;;;4.45;;
37805;SDS011;25082;50.870;0.022;2023-06-24T02:11:59;4.93;;;4.22;;
37805;SDS011;25082;50.870;0.022;2023-06-24T02:14:28;5.50;;;3.97;;
37805;SDS011;25082;50.870;0.022;2023-06-24T02:16:55;6.07;;;3.97;;
37805;SDS011;25082;50.870;0.022;2023-06-24T02:19:24;4.85;;;4.18;;
37805;SDS011;25082;50.870;0.022;2023-06-24T02:21:55;5.10;;;4.13;;
37805;SDS011;25082;50.870;0.022;2023-06-24T02:24:23;6.13;;;4.82;;
37805;SDS011;25082;50.870;0.022;2023-06-24T02:26:51;6.88;;;4.43;;
37805;SDS011;25082;50.870;0.022;2023-06-24T02:29:18;5.90;;;4.18;;
37805;SDS011;25082;50.870;0.022;2023-06-24T02:31:45;6.00;;;4.80;;
37805;SDS011;25082;50.870;0.022;2023-06-24T02:34:10;4.70;;;4.20;;
37805;SDS011;25082;50.870;0.022;2023-06-24T02:36:36;5.45;;;4.18;;
37805;SDS011;25082;50.870;0.022;2023-06-24T02:39:02;6.10;;;4.70;;
37805;SDS011;25082;50.870;0.022;2023-06-24T02:41:27;5.63;;;5.05;;
37805;SDS011;25082;50.870;0.022;2023-06-24T02:43:53;6.70;;;4.78;;
37805;SDS011;25082;50.870;0.022;2023-06-24T02:46:19;6.38;;;4.88;;
37805;SDS011;25082;50.870;0.022;2023-06-24T02:48:46;5.70;;;5.13;;
37805;SDS011;25082;50.870;0.022;2023-06-24T02:51:13;6.03;;;5.00;;
37805;SDS011;25082;50.870;0.022;2023-06-24T02:53:39;6.18;;;5.03;;
37805;SDS011;25082;50.870;0.022;2023-06-24T02:56:06;5.70;;;4.88;;
37805;SDS011;25082;50.870;0.022;2023-06-24T02:58:33;5.45;;;4.82;;
37805;SDS011;25082;50.870;0.022;2023-06-24T03:01:03;6.45;;;4.88;;
37805;SDS011;25082;50.870;0.022;2023-06-24T03:03:31;6.47;;;4.88;;
37805;SDS011;25082;50.870;0.022;2023-06-24T03:05:57;5.18;;;4.43;;
37805;SDS011;25082;50.870;0.022;2023-06-24T03:08:24;7.32;;;4.90;;
37805;SDS011;25082;50.870;0.022;2023-06-24T03:10:55;6.05;;;5.05;;
37805;SDS011;25082;50.870;0.022;2023-06-24T03:13:21;5.90;;;5.10;;
37805;SDS011;25082;50.870;0.022;2023-06-24T03:15:48;5.57;;;4.95;;
37805;SDS011;25082;50.870;0.022;2023-06-24T03:18:13;5.88;;;5.18;;
37805;SDS011;25082;50.870;0.022;2023-06-24T03:20:39;6.10;;;4.75;;
37805;SDS011;25082;50.870;0.022;2023-06-24T03:23:05;6.30;;;5.40;;
37805;SDS011;25082;50.870;0.022;2023-06-24T03:25:31;5.53;;;4.68;;
37805;SDS011;25082;50.870;0.022;2023-06-24T03:27:58;7.13;;;5.32;;
37805;SDS011;25082;50.870;0.022;2023-06-24T03:30:26;5.93;;;4.65;;
37805;SDS011;25082;50.870;0.022;2023-06-24T03:32:52;4.85;;;4.38;;
37805;SDS011;25082;50.870;0.022;2023-06-24T03:35:18;4.70;;;4.22;;
37805;SDS011;25082;50.870;0.022;2023-06-24T03:37:43;6.03;;;4.55;;
37805;SDS011;25082;50.870;0.022;2023-06-24T03:40:09;5.63;;;4.35;;
37805;SDS011;25082;50.870;0.022;2023-06-24T03:42:35;6.60;;;5.05;;
37805;SDS011;25082;50.870;0.022;2023-06-24T03:45:02;6.20;;;4.93;;
37805;SDS011;25082;50.870;0.022;2023-06-24T03:47:28;5.88;;;4.43;;
37805;SDS011;25082;50.870;0.022;2023-06-24T03:49:54;5.25;;;4.75;;
37805;SDS011;25082;50.870;0.022;2023-06-24T03:52:20;6.10;;;4.78;;
37805;SDS011;25082;50.870;0.022;2023-06-24T03:54:46;5.97;;;4.80;;
37805;SDS011;25082;50.870;0.022;2023-06-24T03:57:12;6.28;;;4.60;;
37805;SDS011;25082;50.870;0.022;2023-06-24T03:59:38;5.53;;;4.75;;
37805;SDS011;25082;50.870;0.022;2023-06-24T04:02:07;8.32;;;5.22;;
37805;SDS011;25082;50.870;0.022;2023-06-24T04:04:35;5.20;;;4.70;;
37805;SDS011;25082;50.870;0.022;2023-06-24T04:07:01;5.45;;;4.75;;
37805;SDS011;25082;50.870;0.022;2023-06-24T04:09:28;7.55;;;5.07;;
37805;SDS011;25082;50.870;0.022;2023-06-24T04:11:54;4.78;;;4.07;;
37805;SDS011;25082;50.870;0.022;2023-06-24T04:14:20;6.75;;;4.28;;
37805;SDS011;25082;50.870;0.022;2023-06-24T04:16:46;5.47;;;4.22;;
37805;SDS011;25082;50.870;0.022;2023-06-24T04:19:11;4.53;;;3.83;;
37805;SDS011;25082;50.870;0.022;2023-06-24T04:21:37;7.38;;;4.57;;
37805;SDS011;25082;50.870;0.022;2023-06-24T04:24:03;4.63;;;3.97;;
37805;SDS011;25082;50.870;0.022;2023-06-24T04:26:30;6.13;;;4.70;;
37805;SDS011;25082;50.870;0.022;2023-06-24T04:28:55;4.75;;;4.13;;
37805;SDS011;25082;50.870;0.022;2023-06-24T04:31:21;4.97;;;3.90;;
37805;SDS011;25082;50.870;0.022;2023-06-24T04:33:47;4.95;;;4.45;;
37805;SDS011;25082;50.870;0.022;2023-06-24T04:36:13;4.82;;;3.97;;
37805;SDS011;25082;50.870;0.022;2023-06-24T04:38:38;4.80;;;4.30;;
37805;SDS011;25082;50.870;0.022;2023-06-24T04:41:04;5.13;;;4.43;;
37805;SDS011;25082;50.870;0.022;2023-06-24T04:43:30;6.13;;;4.80;;
37805;SDS011;25082;50.870;0.022;2023-06-24T04:45:55;5.32;;;4.35;;
37805;SDS011;25082;50.870;0.022;2023-06-24T04:48:25;5.65;;;4.40;;
37805;SDS011;25082;50.870;0.022;2023-06-24T04:50:51;7.13;;;4.97;;
37805;SDS011;25082;50.870;0.022;2023-06-24T04:53:18;4.90;;;4.30;;
37805;SDS011;25082;50.870;0.022;2023-06-24T04:55:44;5.28;;;4.53;;
37805;SDS011;25082;50.870;0.022;2023-06-24T04:58:10;6.75;;;4.95;;
37805;SDS011;25082;50.870;0.022;2023-06-24T05:00:35;5.03;;;4.53;;
37805;SDS011;25082;50.870;0.022;2023-06-24T05:03:01;7.03;;;4.50;;
37805;SDS011;25082;50.870;0.022;2023-06-24T05:05:27;6.25;;;4.20;;
37805;SDS011;25082;50.870;0.022;2023-06-24T05:07:52;6.07;;;4.53;;
37805;SDS011;25082;50.870;0.022;2023-06-24T05:10:18;5.22;;;4.63;;
37805;SDS011;25082;50.870;0.022;2023-06-24T05:12:44;4.68;;;4.25;;
37805;SDS011;25082;50.870;0.022;2023-06-24T05:15:10;6.30;;;4.82;;
37805;SDS011;25082;50.870;0.022;2023-06-24T05:17:35;6.50;;;4.68;;
37805;SDS011;25082;50.870;0.022;2023-06-24T05:20:01;6.40;;;4.80;;
37805;SDS011;25082;50.870;0.022;2023-06-24T05:22:28;6.72;;;4.63;;
37805;SDS011;25082;50.870;0.022;2023-06-24T05:24:54;6.63;;;4.43;;
37805;SDS011;25082;50.870;0.022;2023-06-24T05:27:19;5.70;;;4.47;;
37805;SDS011;25082;50.870;0.022;2023-06-24T05:29:45;6.63;;;4.68;;
37805;SDS011;25082;50.870;0.022;2023-06-24T05:32:12;6.20;;;4.80;;
37805;SDS011;25082;50.870;0.022;2023-06-24T05:34:37;6.47;;;4.78;;
37805;SDS011;25082;50.870;0.022;2023-06-24T05:37:03;7.05;;;4.78;;
37805;SDS011;25082;50.870;0.022;2023-06-24T05:39:29;5.07;;;3.92;;
37805;SDS011;25082;50.870;0.022;2023-06-24T05:41:56;4.93;;;4.43;;
37805;SDS011;25082;50.870;0.022;2023-06-24T05:44:21;5.65;;;4.90;;
37805;SDS011;25082;50.870;0.022;2023-06-24T05:46:48;6.05;;;4.40;;
37805;SDS011;25082;50.870;0.022;2023-06-24T05:49:14;5.80;;;4.65;;
37805;SDS011;25082;50.870;0.022;2023-06-24T05:51:40;6.93;;;5.00;;
37805;SDS011;25082;50.870;0.022;2023-06-24T05:54:06;5.97;;;4.78;;
37805;SDS011;25082;50.870;0.022;2023-06-24T05:56:32;4.90;;;4.15;;
37805;SDS011;25082;50.870;0.022;2023-06-24T05:58:58;5.88;;;4.20;;
37805;SDS011;25082;50.870;0.022;2023-06-24T06:01:27;5.28;;;4.72;;
37805;SDS011;25082;50.870;0.022;2023-06-24T06:03:53;6.20;;;4.55;;
37805;SDS011;25082;50.870;0.022;2023-06-24T06:06:18;6.65;;;4.88;;
37805;SDS011;25082;50.870;0.022;2023-06-24T06:08:44;6.03;;;4.75;;
37805;SDS011;25082;50.870;0.022;2023-06-24T06:11:10;5.82;;;4.70;;
37805;SDS011;25082;50.870;0.022;2023-06-24T06:13:36;6.47;;;4.53;;
37805;SDS011;25082;50.870;0.022;2023-06-24T06:16:01;5.40;;;4.53;;
37805;SDS011;25082;50.870;0.022;2023-06-24T06:18:28;6.03;;;4.43;;
37805;SDS011;25082;50.870;0.022;2023-06-24T06:20:54;6.18;;;5.03;;
37805;SDS011;25082;50.870;0.022;2023-06-24T06:23:20;5.72;;;5.00;;
37805;SDS011;25082;50.870;0.022;2023-06-24T06:25:46;5.45;;;4.88;;
37805;SDS011;25082;50.870;0.022;2023-06-24T06:28:11;6.10;;;4.13;;
37805;SDS011;25082;50.870;0.022;2023-06-24T06:30:37;5.45;;;4.50;;
37805;SDS011;25082;50.870;0.022;2023-06-24T06:33:03;5.03;;;4.43;;
37805;SDS011;25082;50.870;0.022;2023-06-24T06:35:29;5.10;;;4.60;;
37805;SDS011;25082;50.870;0.022;2023-06-24T06:37:57;5.68;;;4.40;;
37805;SDS011;25082;50.870;0.022;2023-06-24T06:40:23;5.47;;;4.47;;
37805;SDS011;25082;50.870;0.022;2023-06-24T06:42:48;5.03;;;4.53;;
37805;SDS011;25082;50.870;0.022;2023-06-24T06:45:14;5.05;;;4.53;;
37805;SDS011;25082;50.870;0.022;2023-06-24T06:47:40;5.93;;;4.60;;
37805;SDS011;25082;50.870;0.022;2023-06-24T06:50:06;7.57;;;4.85;;
37805;SDS011;25082;50.870;0.022;2023-06-24T06:52:33;4.28;;;3.88;;
37805;SDS011;25082;50.870;0.022;2023-06-24T06:54:58;4.78;;;4.22;;
37805;SDS011;25082;50.870;0.022;2023-06-24T06:57:24;4.82;;;4.28;;
37805;SDS011;25082;50.870;0.022;2023-06-24T06:59:50;5.20;;;4.43;;
37805;SDS011;25082;50.870;0.022;2023-06-24T07:02:19;6.40;;;4.68;;
37805;SDS011;25082;50.870;0.022;2023-06-24T07:04:48;4.30;;;3.75;;
37805;SDS011;25082;50.870;0.022;2023-06-24T07:07:15;5.53;;;4.57;;
37805;SDS011;25082;50.870;0.022;2023-06-24T07:09:41;5.53;;;4.22;;
37805;SDS011;25082;50.870;0.022;2023-06-24T07:12:07;5.97;;;4.15;;
37805;SDS011;25082;50.870;0.022;2023-06-24T07:14:33;5.68;;;4.40;;
37805;SDS011;25082;50.870;0.022;2023-06-24T07:16:58;7.40;;;4.65;;
37805;SDS011;25082;50.870;0.022;2023-06-24T07:19:25;5.03;;;4.13;;
37805;SDS011;25082;50.870;0.022;2023-06-24T07:21:56;4.88;;;4.38;;
37805;SDS011;25082;50.870;0.022;2023-06-24T07:24:25;6.50;;;4.45;;
37805;SDS011;25082;50.870;0.022;2023-06-24T07:26:51;5.07;;;4.57;;
37805;SDS011;25082;50.870;0.022;2023-06-24T07:29:19;4.90;;;4.40;;
37805;SDS011;25082;50.870;0.022;2023-06-24T07:31:45;5.10;;;4.60;;
37805;SDS011;25082;50.870;0.022;2023-06-24T07:34:11;6.90;;;4.57;;
37805;SDS011;25082;50.870;0.022;2023-06-24T07:36:37;6.15;;;4.32;;
37805;SDS011;25082;50.870;0.022;2023-06-24T07:39:02;4.70;;;4.20;;
37805;SDS011;25082;50.870;0.022;2023-06-24T07:41:28;5.80;;;4.32;;
37805;SDS011;25082;50.870;0.022;2023-06-24T07:43:54;5.95;;;5.22;;
37805;SDS011;25082;50.870;0.022;2023-06-24T07:46:20;4.38;;;3.92;;
37805;SDS011;25082;50.870;0.022;2023-06-24T07:48:46;5.97;;;4.47;;
37805;SDS011;25082;50.870;0.022;2023-06-24T07:51:11;6.45;;;4.55;;
37805;SDS011;25082;50.870;0.022;2023-06-24T07:53:37;5.60;;;4.28;;
37805;SDS011;25082;50.870;0.022;2023-06-24T07:56:03;4.82;;;4.28;;
37805;SDS011;25082;50.870;0.022;2023-06-24T07:58:28;6.15;;;4.68;;
37805;SDS011;25082;50.870;0.022;2023-06-24T08:00:54;5.05;;;4.55;;
37805;SDS011;25082;50.870;0.022;2023-06-24T08:03:20;4.45;;;3.65;;
37805;SDS011;25082;50.870;0.022;2023-06-24T08:05:46;3.85;;;3.55;;
37805;SDS011;25082;50.870;0.022;2023-06-24T08:08:13;4.93;;;4.25;;
37805;SDS011;25082;50.870;0.022;2023-06-24T08:10:39;5.53;;;4.30;;
37805;SDS011;25082;50.870;0.022;2023-06-24T08:13:05;5.60;;;4.10;;
37805;SDS011;25082;50.870;0.022;2023-06-24T08:15:30;9.07;;;4.40;;
37805;SDS011;25082;50.870;0.022;2023-06-24T08:17:56;6.63;;;4.07;;
37805;SDS011;25082;50.870;0.022;2023-06-24T08:20:22;6.53;;;5.03;;
37805;SDS011;25082;50.870;0.022;2023-06-24T08:22:49;14.15;;;4.40;;
37805;SDS011;25082;50.870;0.022;2023-06-24T08:25:15;13.25;;;4.82;;
37805;SDS011;25082;50.870;0.022;2023-06-24T08:27:41;6.65;;;4.43;;
37805;SDS011;25082;50.870;0.022;2023-06-24T08:30:11;13.18;;;4.70;;
37805;SDS011;25082;50.870;0.022;2023-06-24T08:32:38;13.35;;;4.97;;
37805;SDS011;25082;50.870;0.022;2023-06-24T08:35:05;8.57;;;4.43;;
37805;SDS011;25082;50.870;0.022;2023-06-24T08:37:32;9.07;;;5.05;;
37805;SDS011;25082;50.870;0.022;2023-06-24T08:40:02;7.32;;;4.88;;
37805;SDS011;25082;50.870;0.022;2023-06-24T08:42:29;5.85;;;4.60;;
37805;SDS011;25082;50.870;0.022;2023-06-24T08:44:55;11.00;;;7.90;;
37805;SDS011;25082;50.870;0.022;2023-06-24T08:47:22;12.02;;;8.00;;
37805;SDS011;25082;50.870;0.022;2023-06-24T08:49:52;12.55;;;8.65;;
37805;SDS011;25082;50.870;0.022;2023-06-24T08:52:21;14.02;;;8.60;;
37805;SDS011;25082;50.870;0.022;2023-06-24T08:54:51;14.55;;;8.00;;
37805;SDS011;25082;50.870;0.022;2023-06-24T08:57:20;13.32;;;7.72;;
37805;SDS011;25082;50.870;0.022;2023-06-24T08:59:46;13.50;;;9.88;;
37805;SDS011;25082;50.870;0.022;2023-06-24T09:02:11;14.15;;;9.70;;
37805;SDS011;25082;50.870;0.022;2023-06-24T09:04:39;16.23;;;9.23;;
37805;SDS011;25082;50.870;0.022;2023-06-24T09:07:05;13.38;;;9.00;;
37805;SDS011;25082;50.870;0.022;2023-06-24T09:09:31;12.38;;;9.68;;
37805;SDS011;25082;50.870;0.022;2023-06-24T09:11:58;12.30;;;9.27;;
37805;SDS011;25082;50.870;0.022;2023-06-24T09:14:25;14.10;;;9.63;;
37805;SDS011;25082;50.870;0.022;2023-06-24T09:19:22;16.50;;;8.75;;
37805;SDS011;25082;50.870;0.022;2023-06-24T09:21:49;15.07;;;9.30;;
37805;SDS011;25082;50.870;0.022;2023-06-24T09:24:17;19.98;;;9.40;;
37805;SDS011;25082;50.870;0.022;2023-06-24T09:26:43;24.25;;;9.13;;
37805;SDS011;25082;50.870;0.022;2023-06-24T09:29:13;12.93;;;9.45;;
37805;SDS011;25082;50.870;0.022;2023-06-24T09:31:49;16.95;;;8.63;;
37805;SDS011;25082;50.870;0.022;2023-06-24T09:34:18;12.20;;;8.82;;
37805;SDS011;25082;50.870;0.022;2023-06-24T09:36:44;13.02;;;8.95;;
37805;SDS011;25082;50.870;0.022;2023-06-24T09:39:16;15.43;;;9.18;;
37805;SDS011;25082;50.870;0.022;2023-06-24T09:41:42;50.47;;;13.07;;
37805;SDS011;25082;50.870;0.022;2023-06-24T09:44:08;39.92;;;12.60;;
37805;SDS011;25082;50.870;0.022;2023-06-24T09:46:36;41.78;;;13.25;;
37805;SDS011;25082;50.870;0.022;2023-06-24T09:49:05;25.13;;;12.75;;
37805;SDS011;25082;50.870;0.022;2023-06-24T09:51:38;31.08;;;11.65;;
37805;SDS011;25082;50.870;0.022;2023-06-24T09:54:09;26.98;;;10.73;;
37805;SDS011;25082;50.870;0.022;2023-06-24T09:56:36;15.17;;;11.00;;
37805;SDS011;25082;50.870;0.022;2023-06-24T09:59:06;22.42;;;10.73;;
37805;SDS011;25082;50.870;0.022;2023-06-24T10:01:33;23.95;;;11.10;;
37805;SDS011;25082;50.870;0.022;2023-06-24T10:04:03;17.10;;;9.95;;
37805;SDS011;25082;50.870;0.022;2023-06-24T10:06:33;16.05;;;9.73;;
37805;SDS011;25082;50.870;0.022;2023-06-24T10:09:00;22.40;;;10.80;;
37805;SDS011;25082;50.870;0.022;2023-06-24T10:11:26;12.48;;;9.60;;
37805;SDS011;25082;50.870;0.022;2023-06-24T10:13:53;20.42;;;10.20;;
37805;SDS011;25082;50.870;0.022;2023-06-24T10:16:19;18.30;;;10.95;;
37805;SDS011;25082;50.870;0.022;2023-06-24T10:18:45;18.35;;;9.77;;
37805;SDS011;25082;50.870;0.022;2023-06-24T10:21:12;16.05;;;9.88;;
37805;SDS011;25082;50.870;0.022;2023-06-24T10:23:51;20.15;;;9.63;;
37805;SDS011;25082;50.870;0.022;2023-06-24T10:26:29;16.77;;;8.95;;
37805;SDS011;25082;50.870;0.022;2023-06-24T10:39:48;12.68;;;9.23;;
37805;SDS011;25082;50.870;0.022;2023-06-24T10:42:32;13.63;;;8.90;;
37805;SDS011;25082;50.870;0.022;2023-06-24T10:47:34;13.65;;;8.82;;
37805;SDS011;25082;50.870;0.022;2023-06-24T10:50:04;13.02;;;8.45;;
37805;SDS011;25082;50.870;0.022;2023-06-24T10:52:31;15.57;;;10.80;;
37805;SDS011;25082;50.870;0.022;2023-06-24T10:54:57;16.50;;;9.35;;
37805;SDS011;25082;50.870;0.022;2023-06-24T10:57:24;15.95;;;9.45;;
37805;SDS011;25082;50.870;0.022;2023-06-24T10:59:52;15.93;;;9.50;;
37805;SDS011;25082;50.870;0.022;2023-06-24T11:02:22;15.40;;;10.07;;
37805;SDS011;25082;50.870;0.022;2023-06-24T11:04:50;15.52;;;9.77;;
37805;SDS011;25082;50.870;0.022;2023-06-24T11:07:25;14.65;;;9.60;;
37805;SDS011;25082;50.870;0.022;2023-06-24T11:10:00;15.57;;;9.88;;
37805;SDS011;25082;50.870;0.022;2023-06-24T11:14:56;14.43;;;9.95;;
37805;SDS011;25082;50.870;0.022;2023-06-24T11:17:25;14.30;;;9.70;;
37805;SDS011;25082;50.870;0.022;2023-06-24T11:19:55;13.30;;;9.93;;
37805;SDS011;25082;50.870;0.022;2023-06-24T11:22:23;13.90;;;9.00;;
37805;SDS011;25082;50.870;0.022;2023-06-24T11:24:49;15.15;;;9.73;;
37805;SDS011;25082;50.870;0.022;2023-06-24T11:27:16;12.07;;;9.63;;
37805;SDS011;25082;50.870;0.022;2023-06-24T11:29:41;11.70;;;8.73;;
37805;SDS011;25082;50.870;0.022;2023-06-24T11:32:09;10.82;;;8.80;;
37805;SDS011;25082;50.870;0.022;2023-06-24T11:34:35;13.90;;;8.95;;
37805;SDS011;25082;50.870;0.022;2023-06-24T11:37:35;8.95;;;7.93;;
37805;SDS011;25082;50.870;0.022;2023-06-24T11:42:29;14.32;;;8.70;;
37805;SDS011;25082;50.870;0.022;2023-06-24T11:44:59;15.35;;;8.43;;
37805;SDS011;25082;50.870;0.022;2023-06-24T11:47:26;12.38;;;8.32;;
37805;SDS011;25082;50.870;0.022;2023-06-24T11:49:55;13.00;;;8.13;;
37805;SDS011;25082;50.870;0.022;2023-06-24T11:52:41;10.88;;;7.97;;
37805;SDS011;25082;50.870;0.022;2023-06-24T11:57:47;8.80;;;7.22;;
37805;SDS011;25082;50.870;0.022;2023-06-24T12:03:11;10.38;;;7.75;;
37805;SDS011;25082;50.870;0.022;2023-06-24T12:05:37;9.98;;;7.32;;
37805;SDS011;25082;50.870;0.022;2023-06-24T12:08:05;8.13;;;6.38;;
37805;SDS011;25082;50.870;0.022;2023-06-24T12:10:32;9.88;;;7.20;;
37805;SDS011;25082;50.870;0.022;2023-06-24T12:12:59;11.07;;;7.60;;
37805;SDS011;25082;50.870;0.022;2023-06-24T12:15:26;9.95;;;6.93;;
37805;SDS011;25082;50.870;0.022;2023-06-24T12:17:52;11.30;;;6.72;;
37805;SDS011;25082;50.870;0.022;2023-06-24T12:20:18;9.05;;;7.03;;
37805;SDS011;25082;50.870;0.022;2023-06-24T12:22:45;8.27;;;6.65;;
37805;SDS011;25082;50.870;0.022;2023-06-24T12:25:12;10.32;;;6.90;;
37805;SDS011;25082;50.870;0.022;2023-06-24T12:27:38;10.55;;;7.30;;
37805;SDS011;25082;50.870;0.022;2023-06-24T12:30:05;9.50;;;7.10;;
37805;SDS011;25082;50.870;0.022;2023-06-24T12:32:32;10.18;;;6.45;;
37805;SDS011;25082;50.870;0.022;2023-06-24T12:34:57;7.75;;;6.72;;
37805;SDS011;25082;50.870;0.022;2023-06-24T12:37:23;8.57;;;6.82;;
37805;SDS011;25082;50.870;0.022;2023-06-24T12:39:49;8.07;;;6.78;;
37805;SDS011;25082;50.870;0.022;2023-06-24T12:42:18;7.35;;;6.03;;
37805;SDS011;25082;50.870;0.022;2023-06-24T12:44:44;8.35;;;6.80;;
37805;SDS011;25082;50.870;0.022;2023-06-24T12:47:09;10.27;;;6.38;;
37805;SDS011;25082;50.870;0.022;2023-06-24T12:49:35;8.48;;;6.60;;
37805;SDS011;25082;50.870;0.022;2023-06-24T12:52:01;8.30;;;6.18;;
37805;SDS011;25082;50.870;0.022;2023-06-24T12:54:27;7.82;;;6.55;;
37805;SDS011;25082;50.870;0.022;2023-06-24T12:56:52;8.32;;;6.53;;
37805;SDS011;25082;50.870;0.022;2023-06-24T12:59:18;7.10;;;5.78;;
37805;SDS011;25082;50.870;0.022;2023-06-24T13:01:44;7.13;;;5.85;;
37805;SDS011;25082;50.870;0.022;2023-06-24T13:04:10;8.23;;;6.70;;
37805;SDS011;25082;50.870;0.022;2023-06-24T13:06:36;9.23;;;6.35;;
37805;SDS011;25082;50.870;0.022;2023-06-24T13:09:02;8.25;;;6.03;;
37805;SDS011;25082;50.870;0.022;2023-06-24T13:11:28;7.78;;;6.30;;
37805;SDS011;25082;50.870;0.022;2023-06-24T13:13:54;7.72;;;6.05;;
37805;SDS011;25082;50.870;0.022;2023-06-24T13:16:20;6.43;;;5.25;;
37805;SDS011;25082;50.870;0.022;2023-06-24T13:18:46;5.72;;;5.03;;
37805;SDS011;25082;50.870;0.022;2023-06-24T13:21:12;6.40;;;5.53;;
37805;SDS011;25082;50.870;0.022;2023-06-24T13:23:38;7.25;;;5.88;;
37805;SDS011;25082;50.870;0.022;2023-06-24T13:26:05;8.23;;;6.30;;
37805;SDS011;25082;50.870;0.022;2023-06-24T13:28:33;6.05;;;5.45;;
37805;SDS011;25082;50.870;0.022;2023-06-24T13:30:59;6.88;;;5.30;;
37805;SDS011;25082;50.870;0.022;2023-06-24T13:33:24;6.45;;;5.60;;
37805;SDS011;25082;50.870;0.022;2023-06-24T13:35:51;7.47;;;5.68;;
37805;SDS011;25082;50.870;0.022;2023-06-24T13:38:17;7.03;;;5.75;;
37805;SDS011;25082;50.870;0.022;2023-06-24T13:40:43;5.85;;;5.03;;
37805;SDS011;25082;50.870;0.022;2023-06-24T13:43:09;6.93;;;5.53;;
37805;SDS011;25082;50.870;0.022;2023-06-24T13:45:35;5.78;;;5.18;;
37805;SDS011;25082;50.870;0.022;2023-06-24T13:48:00;8.48;;;5.90;;
37805;SDS011;25082;50.870;0.022;2023-06-24T13:50:27;6.22;;;5.30;;
37805;SDS011;25082;50.870;0.022;2023-06-24T13:52:54;5.72;;;5.10;;
37805;SDS011;25082;50.870;0.022;2023-06-24T13:55:20;7.35;;;5.72;;
37805;SDS011;25082;50.870;0.022;2023-06-24T13:57:46;7.63;;;5.63;;
37805;SDS011;25082;50.870;0.022;2023-06-24T14:00:12;6.03;;;5.35;;
37805;SDS011;25082;50.870;0.022;2023-06-24T14:02:38;7.05;;;5.28;;
37805;SDS011;25082;50.870;0.022;2023-06-24T14:05:05;5.78;;;5.03;;
37805;SDS011;25082;50.870;0.022;2023-06-24T14:07:31;6.75;;;5.35;;
37805;SDS011;25082;50.870;0.022;2023-06-24T14:09:57;6.32;;;4.95;;
37805;SDS011;25082;50.870;0.022;2023-06-24T14:12:22;7.57;;;5.55;;
37805;SDS011;25082;50.870;0.022;2023-06-24T14:14:48;7.35;;;4.93;;
37805;SDS011;25082;50.870;0.022;2023-06-24T14:17:14;6.78;;;5.60;;
37805;SDS011;25082;50.870;0.022;2023-06-24T14:19:40;5.65;;;4.95;;
37805;SDS011;25082;50.870;0.022;2023-06-24T14:22:06;6.38;;;4.97;;
37805;SDS011;25082;50.870;0.022;2023-06-24T14:24:33;5.68;;;5.15;;
37805;SDS011;25082;50.870;0.022;2023-06-24T14:26:59;5.45;;;4.50;;
37805;SDS011;25082;50.870;0.022;2023-06-24T14:29:25;5.80;;;4.97;;
37805;SDS011;25082;50.870;0.022;2023-06-24T14:31:51;6.82;;;5.03;;
37805;SDS011;25082;50.870;0.022;2023-06-24T14:34:17;7.03;;;5.05;;
37805;SDS011;25082;50.870;0.022;2023-06-24T14:36:43;5.82;;;4.68;;
37805;SDS011;25082;50.870;0.022;2023-06-24T14:39:11;5.75;;;5.13;;
37805;SDS011;25082;50.870;0.022;2023-06-24T14:41:39;6.40;;;4.55;;
37805;SDS011;25082;50.870;0.022;2023-06-24T14:44:04;5.47;;;4.30;;
37805;SDS011;25082;50.870;0.022;2023-06-24T14:46:30;4.97;;;4.50;;
37805;SDS011;25082;50.870;0.022;2023-06-24T14:48:56;4.45;;;4.05;;
37805;SDS011;25082;50.870;0.022;2023-06-24T14:51:23;4.47;;;4.05;;
37805;SDS011;25082;50.870;0.022;2023-06-24T14:53:49;5.47;;;4.03;;
37805;SDS011;25082;50.870;0.022;2023-06-24T14:56:15;6.40;;;4.35;;
37805;SDS011;25082;50.870;0.022;2023-06-24T14:58:41;5.30;;;4.32;;
37805;SDS011;25082;50.870;0.022;2023-06-24T15:01:06;5.20;;;4.25;;
37805;SDS011;25082;50.870;0.022;2023-06-24T15:03:32;8.02;;;4.80;;
37805;SDS011;25082;50.870;0.022;2023-06-24T15:05:58;4.40;;;3.95;;
37805;SDS011;25082;50.870;0.022;2023-06-24T15:08:24;4.90;;;4.13;;
37805;SDS011;25082;50.870;0.022;2023-06-24T15:10:51;6.30;;;4.90;;
37805;SDS011;25082;50.870;0.022;2023-06-24T15:13:17;4.32;;;3.67;;
37805;SDS011;25082;50.870;0.022;2023-06-24T15:15:43;4.90;;;4.40;;
37805;SDS011;25082;50.870;0.022;2023-06-24T15:18:09;4.50;;;3.97;;
37805;SDS011;25082;50.870;0.022;2023-06-24T15:20:35;5.63;;;4.00;;
37805;SDS011;25082;50.870;0.022;2023-06-24T15:23:01;5.00;;;3.75;;
37805;SDS011;25082;50.870;0.022;2023-06-24T15:25:27;4.82;;;3.83;;